Report METAR

 

LIML - Milano/Linate, Italy
Distance from station: NO 27km
Dati ricevuti: 21/07/2018 10:50
Pioviggine, Nuvoloso
Pioviggine, Nuvoloso
 Vento da NE
Vento: NE 9 km/h
Temperatura: 20°C
P.to Rugiada: 19°C
Umidità: 94%
Barometro: 1012 hPa
Summary: Pioviggine
Nuvole: Molto nuvoloso
Visibility: 10 km
Cloud details: Few Clouds 457 m
Molto nuvoloso 914 m
2018/07/21 08:50 LIML 210850Z 04005KT 9999 -RA FEW015 BKN030 20/19 Q1012 RERA NOSIG
LIME - Bergamo/Orio Ser, Italy
Distance from station: NNE 43km
Dati ricevuti: 21/07/2018 10:50
Pioviggine, Nuvoloso
Pioviggine, Nuvoloso
 Vento da NNE
Vento: NNE 11 km/h
Temperatura: 20°C
P.to Rugiada: 17°C
Umidità: 83%
Barometro: 1012 hPa
Summary: Pioviggine
Nuvole: Molto nuvoloso
Visibility: 10 km
Cloud details: Few Clouds 914 m
Parz. nuvoloso 1676 m
Molto nuvoloso 2743 m
2018/07/21 08:50 LIME 210850Z 02006KT 350V050 9999 -RA FEW030CB SCT055 BKN090 20/17 Q1012 NOSIG
 
LIMS - Piacenza, it-Afb, Italy
Distance from station: SSE 45km
Dati ricevuti: 21/07/2018 10:55
Parz. nuvoloso
Parz. nuvoloso
 Vento da ONO
Vento: ONO 9 km/h
Temperatura: 21°C
P.to Rugiada: 21°C
Umidità: 100%
Barometro: 1010 hPa
Nuvole: Parz. nuvoloso
Visibility: 6 km
Cloud details: Parz. nuvoloso 305 m
Parz. nuvoloso 1829 m
2018/07/21 08:55 LIMS 210855Z 30005KT 6000 SCT010 SCT060 21/21 Q1010
LIPO - Brescia/Montichi, Italy
Distance from station: ENE 65km
Dati ricevuti: 21/07/2018 10:50
Parz. nuvoloso
Parz. nuvoloso
 Vento da E
Vento: E 13 km/h
Temperatura: 23°C
P.to Rugiada: 18°C
Umidità: 74%
Barometro: 1011 hPa
Nuvole: Parz. nuvoloso
Visibility: 10 km
Cloud details: Parz. nuvoloso 1524 m
2018/07/21 08:50 LIPO 210850Z 08007KT 9999 SCT050 23/18 Q1011